createdAt,value
2023-05-05T02:24:25.488Z,15.56
2023-05-05T02:26:54.069Z,15.50
2023-05-05T02:29:31.235Z,15.45
2023-05-05T02:32:08.888Z,15.45
2023-05-05T02:34:42.096Z,15.41
2023-05-05T02:37:26.240Z,15.40
2023-05-05T02:40:48.339Z,15.38
2023-05-05T02:43:41.275Z,15.31
2023-05-05T02:52:46.282Z,15.05
2023-05-05T02:55:15.603Z,14.99
2023-05-05T02:57:55.126Z,14.93
2023-05-05T03:00:51.775Z,14.86
2023-05-05T03:06:39.480Z,14.69
2023-05-05T03:09:12.410Z,14.60
2023-05-05T03:11:59.791Z,14.58
2023-05-05T03:14:32.821Z,14.51
2023-05-05T03:17:26.595Z,14.47
2023-05-05T03:19:54.833Z,14.44
2023-05-05T03:22:22.000Z,14.45
2023-05-05T03:31:01.788Z,14.32
2023-05-05T03:39:29.136Z,14.26
2023-05-05T03:48:06.637Z,14.18
2023-05-05T03:53:50.996Z,14.11
2023-05-05T03:57:09.244Z,14.09
2023-05-05T04:19:12.051Z,13.93
2023-05-05T04:24:56.631Z,13.89
2023-05-05T04:31:26.696Z,13.87
2023-05-05T04:48:34.917Z,13.90
2023-05-05T05:09:57.941Z,13.94
2023-05-05T05:12:34.079Z,13.98
2023-05-05T05:15:20.387Z,13.99
2023-05-05T05:20:43.033Z,14.08
2023-05-05T05:32:05.005Z,14.27
2023-05-05T05:34:33.075Z,14.27
2023-05-05T05:36:59.655Z,14.31
2023-05-05T05:39:26.306Z,14.37
2023-05-05T05:41:53.553Z,14.37
2023-05-05T05:44:20.203Z,14.46
2023-05-05T05:46:46.834Z,14.50
2023-05-05T05:49:14.595Z,14.55
2023-05-05T05:51:42.456Z,14.62
2023-05-05T05:54:15.492Z,14.69
2023-05-05T05:56:51.475Z,14.78
2023-05-05T05:59:23.682Z,14.90
2023-05-05T06:05:15.538Z,15.22
2023-05-05T06:07:45.566Z,15.34
2023-05-05T09:14:28.327Z,18.82
2023-05-05T09:24:07.783Z,18.74
2023-05-05T09:26:38.678Z,18.78
2023-05-05T09:29:54.630Z,18.93
2023-05-05T10:02:19.059Z,18.48
2023-05-05T10:05:07.969Z,18.45
2023-05-05T10:07:35.506Z,18.41
2023-05-05T10:10:04.904Z,18.37
2023-05-05T10:12:32.258Z,18.31
2023-05-05T10:15:03.896Z,18.13
2023-05-05T10:17:33.174Z,17.83
2023-05-05T10:20:01.390Z,17.53
2023-05-05T10:22:32.903Z,17.19
2023-05-05T10:25:10.108Z,16.96
2023-05-05T10:27:44.005Z,16.80
2023-05-05T10:30:25.603Z,16.67
2023-05-05T10:33:14.059Z,16.60
2023-05-05T10:36:03.778Z,16.52
2023-05-05T10:38:31.884Z,16.49
2023-05-05T10:41:02.928Z,16.41
2023-05-05T10:43:36.548Z,16.37
2023-05-05T10:46:03.319Z,16.32
2023-05-05T10:48:46.938Z,16.25
2023-05-05T10:51:43.507Z,16.19
2023-05-05T10:54:38.178Z,16.12
2023-05-05T10:57:12.337Z,16.08
2023-05-05T10:59:40.818Z,15.96
2023-05-05T11:02:23.571Z,15.87
2023-05-05T11:05:08.958Z,15.85
2023-05-05T11:07:39.537Z,15.84
2023-05-05T11:10:09.247Z,15.83
2023-05-05T11:13:00.436Z,15.81
2023-05-05T11:15:29.539Z,15.80
2023-05-05T11:17:57.686Z,15.79
2023-05-05T11:20:47.418Z,15.77
2023-05-05T11:23:20.254Z,15.75
2023-05-05T11:25:47.209Z,15.69
2023-05-05T11:28:17.336Z,15.69
2023-05-05T11:30:57.876Z,15.67
2023-05-05T11:33:28.550Z,15.65
2023-05-05T11:36:06.669Z,15.57
2023-05-05T11:38:49.823Z,15.51
2023-05-05T11:41:31.813Z,15.52
2023-05-05T11:44:18.995Z,15.53
2023-05-05T11:46:51.752Z,15.58
2023-05-05T11:49:30.761Z,15.62
2023-05-05T11:52:04.938Z,15.64
2023-05-05T11:54:32.222Z,15.63
2023-05-05T11:57:05.102Z,15.59
2023-05-05T11:59:32.754Z,15.59
2023-05-05T12:01:59.794Z,15.59
2023-05-05T12:04:26.560Z,15.56
2023-05-05T12:06:55.407Z,15.52
2023-05-05T12:09:22.989Z,15.47
2023-05-05T12:11:56.444Z,15.47
2023-05-05T12:14:27.629Z,15.47
2023-05-05T12:16:55.685Z,15.50
2023-05-05T12:19:22.327Z,15.53
2023-05-05T12:21:49.136Z,15.52
2023-05-05T12:24:17.022Z,15.49
2023-05-05T12:26:43.822Z,15.51
2023-05-05T12:29:10.988Z,15.52
2023-05-05T12:31:40.484Z,15.52
2023-05-05T12:34:08.841Z,15.48
2023-05-05T12:36:37.529Z,15.49
2023-05-05T12:39:05.413Z,15.51
2023-05-05T12:41:33.001Z,15.51
2023-05-05T12:44:01.546Z,15.52
2023-05-05T12:46:32.281Z,15.51
2023-05-05T12:49:05.503Z,15.55
2023-05-05T12:51:34.999Z,15.55
2023-05-05T12:54:03.007Z,15.56
2023-05-05T12:56:31.172Z,15.59
2023-05-05T12:59:00.213Z,15.63
2023-05-05T13:01:27.718Z,15.63
2023-05-05T13:04:09.141Z,15.63
2023-05-05T13:06:36.246Z,15.63
2023-05-05T13:09:03.154Z,15.65
2023-05-05T13:11:30.921Z,15.66
2023-05-05T13:13:57.669Z,15.65
2023-05-05T13:16:24.325Z,15.68
2023-05-05T13:18:51.311Z,15.74
2023-05-05T13:21:18.428Z,15.70
2023-05-05T13:24:21.244Z,15.67
2023-05-05T13:26:53.252Z,15.67
2023-05-05T13:29:19.904Z,15.67
2023-05-05T13:31:46.747Z,15.66
2023-05-05T13:34:13.571Z,15.67
2023-05-05T13:36:40.182Z,15.72
2023-05-05T13:39:08.168Z,15.71
2023-05-05T13:41:34.752Z,15.68
2023-05-05T13:44:01.407Z,15.66
2023-05-05T13:46:28.160Z,15.64
2023-05-05T13:48:56.767Z,15.62
2023-05-05T13:51:23.674Z,15.60
2023-05-05T13:53:50.312Z,15.56
2023-05-05T13:56:18.244Z,15.55
2023-05-05T13:58:44.995Z,15.55
2023-05-05T14:01:11.723Z,15.53
2023-05-05T14:03:39.665Z,15.50
2023-05-05T14:06:07.495Z,15.48
2023-05-05T14:08:34.137Z,15.39
2023-05-05T14:11:01.945Z,15.34
2023-05-05T14:13:28.736Z,15.36
2023-05-05T14:15:55.375Z,15.37
2023-05-05T14:18:22.838Z,15.39
2023-05-05T14:20:49.347Z,15.39
2023-05-05T14:23:15.813Z,15.41
2023-05-05T14:25:42.627Z,15.45
2023-05-05T14:28:09.151Z,15.47
2023-05-05T14:30:35.732Z,15.49
2023-05-05T14:33:02.527Z,15.46
2023-05-05T14:35:30.112Z,15.44
2023-05-05T14:37:56.748Z,15.44
2023-05-05T14:40:23.571Z,15.46
2023-05-05T14:42:50.900Z,15.44
2023-05-05T14:45:17.458Z,15.46
2023-05-05T14:47:44.016Z,15.43
2023-05-05T14:50:11.977Z,15.34
2023-05-05T14:52:40.169Z,15.43
2023-05-05T14:55:07.902Z,15.61
2023-05-05T14:57:34.827Z,15.81
2023-05-05T15:00:01.470Z,16.10
2023-05-05T15:02:28.225Z,16.14
2023-05-05T15:04:55.046Z,16.26
2023-05-05T15:07:23.710Z,16.33
2023-05-05T15:09:50.265Z,16.34
2023-05-05T15:12:16.772Z,16.33
2023-05-05T15:14:43.290Z,16.30
2023-05-05T15:17:09.811Z,16.18
2023-05-05T15:19:36.384Z,16.13
2023-05-05T15:22:03.046Z,16.11
2023-05-05T15:24:29.966Z,16.12
2023-05-05T15:26:56.902Z,16.16
2023-05-05T15:29:23.492Z,16.20
2023-05-05T15:31:50.046Z,16.18
2023-05-05T15:34:16.576Z,16.23
2023-05-05T15:36:43.044Z,16.32
2023-05-05T15:39:09.900Z,16.40
2023-05-05T15:41:36.488Z,16.47
2023-05-05T15:44:04.798Z,16.53
2023-05-05T15:46:33.460Z,16.57
2023-05-05T15:49:00.289Z,16.58
2023-05-05T15:51:27.375Z,16.56
2023-05-05T15:53:54.083Z,16.55
2023-05-05T15:56:20.715Z,16.54
2023-05-05T15:58:47.241Z,16.56
2023-05-05T16:01:13.776Z,16.58
2023-05-05T16:03:40.464Z,16.58
2023-05-05T16:06:07.517Z,16.57
2023-05-05T16:08:34.022Z,16.60
2023-05-05T16:11:01.324Z,16.59
2023-05-05T16:13:30.133Z,16.59
2023-05-05T16:15:56.643Z,16.65
2023-05-05T16:18:23.618Z,16.79
2023-05-05T16:20:50.183Z,16.88
2023-05-05T16:23:17.810Z,16.92
2023-05-05T16:25:45.824Z,16.94
2023-05-05T16:28:23.574Z,16.97
2023-05-05T16:30:50.236Z,16.97
2023-05-05T16:33:19.652Z,17.01
2023-05-05T16:35:46.388Z,17.05
2023-05-05T16:38:13.531Z,17.08
2023-05-05T16:40:40.683Z,17.03
2023-05-05T16:43:07.448Z,16.97
2023-05-05T16:45:43.633Z,16.93
2023-05-05T16:48:10.448Z,16.90
2023-05-05T16:50:37.123Z,16.91
2023-05-05T16:53:03.824Z,16.86
2023-05-05T16:55:30.548Z,16.79
2023-05-05T16:57:58.259Z,16.77
2023-05-05T17:00:24.877Z,16.75
2023-05-05T17:02:51.483Z,16.72
2023-05-05T17:05:18.093Z,16.69
2023-05-05T17:07:45.764Z,16.65
2023-05-05T17:10:12.350Z,16.63
2023-05-05T17:12:38.987Z,16.63
2023-05-05T17:15:06.598Z,16.66
2023-05-05T17:17:33.355Z,16.69
2023-05-05T17:20:00.029Z,16.64
2023-05-05T17:22:27.140Z,16.61
2023-05-05T17:24:53.799Z,16.55
2023-05-05T17:27:20.436Z,16.54
2023-05-05T17:29:48.409Z,16.52
2023-05-05T17:32:14.975Z,16.45
2023-05-05T17:34:41.554Z,16.45
2023-05-05T17:37:09.278Z,16.47
2023-05-05T17:39:36.947Z,16.47
2023-05-05T17:42:04.209Z,16.45
2023-05-05T17:44:32.599Z,16.37
2023-05-05T17:47:08.579Z,16.33
2023-05-05T17:49:35.273Z,16.31
2023-05-05T17:52:02.446Z,16.27
2023-05-05T17:54:31.121Z,16.24
2023-05-05T17:56:57.679Z,16.19
2023-05-05T17:59:24.243Z,16.18
2023-05-05T18:01:50.912Z,16.16
2023-05-05T18:04:17.506Z,16.14
2023-05-05T18:06:44.581Z,16.12
